Temp: 18.0°C   Baro: 1015.2mb
  Wind: 4.9mph   Dir: WSW (258°)
  Rain: 0.6mm (0.0mm/hr)
  Solar: 383W/m2  Hum: 55%
 
Bath Spa Weather Station Historical Data
Daily Summary for August 3, 2020 Units:  Metric    English   Both
Daily Weekly Monthly Yearly Custom
  High: Low: Average:
Temperature: 18.3 °C 14.2 °C 16.6 °C
Dew Point: 17.6 °C 12.6 °C 15.3 °C
Humidity: 94% 79.4% 90%
Wind Speed: 15.3km/h 0km/h 7.2km/h
Wind Gust: 29km/h - -
Wind- - West
Pressure: 1019.5 hPa 1013.1 hPa -
Precipitation: 0.51 mm    
Historical Graphs
 
 
Tabular Data for August 3, 2020
Time Temperature Dew Point Pressure Wind Wind Speed Wind Gust Humidity Rainfall Rate (Hourly) solar
00:04 16.5 °C 15 °C 1015.1 hPa WSW 7.6 km/h 14.5 km/h 88% 0.25 mm 0 W/m2
00:09 16.5 °C 15 °C 1015.1 hPa SW 8.4 km/h 17.7 km/h 88% 0.25 mm 0 W/m2
00:14 16.6 °C 15.1 °C 1015.1 hPa SW 10.1 km/h 20.9 km/h 88% 0.25 mm 0 W/m2
00:19 16.5 °C 15 °C 1015.1 hPa SW 8.9 km/h 17.7 km/h 88% 0.25 mm 0 W/m2
00:24 16.5 °C 15 °C 1015.1 hPa SW 8.5 km/h 20.9 km/h 88% 0.25 mm 0 W/m2
00:29 16.6 °C 15.1 °C 1015.1 hPa WSW 8.9 km/h 14.5 km/h 88% 0.25 mm 0 W/m2
00:34 16.6 °C 15.1 °C 1015.1 hPa SW 11.4 km/h 20.9 km/h 88% 0.25 mm 0 W/m2
00:39 16.5 °C 15 °C 1014.8 hPa WSW 6.1 km/h 17.7 km/h 88% 0.25 mm 0 W/m2
00:43 16.5 °C 15.2 °C 1014.8 hPa SW 6.3 km/h 20.9 km/h 88.8% 0.25 mm 0 W/m2
00:49 16.4 °C 15.2 °C 1014.8 hPa SW 6.8 km/h 16.1 km/h 89% 0.25 mm 0 W/m2
00:54 16.4 °C 15.2 °C 1015.1 hPa West 8.4 km/h 19.3 km/h 89% 0.25 mm 0 W/m2
00:59 16.5 °C 15.2 °C 1015.1 hPa WSW 8.5 km/h 17.7 km/h 89% 0.25 mm 0 W/m2
01:04 16.5 °C 15.2 °C 1015.1 hPa SW 6.3 km/h 16.1 km/h 89% 0 mm 0 W/m2
01:09 16.5 °C 15.2 °C 1015.1 hPa WSW 6.4 km/h 16.1 km/h 89% 0 mm 0 W/m2
01:14 16.5 °C 15.2 °C 1015.1 hPa SW 3.4 km/h 9.7 km/h 89% 0 mm 0 W/m2
01:19 16.5 °C 15.2 °C 1014.8 hPa SW 4.8 km/h 11.3 km/h 89% 0 mm 0 W/m2
01:24 16.4 °C 15.2 °C 1014.8 hPa SSW 2.1 km/h 6.4 km/h 89% 0 mm 0 W/m2
01:29 16.4 °C 15.1 °C 1014.8 hPa SSW 5.3 km/h 14.5 km/h 89% 0 mm 0 W/m2
01:34 16.4 °C 15.1 °C 1014.8 hPa SW 8.4 km/h 19.3 km/h 89% 0 mm 0 W/m2
01:39 16.4 °C 15.1 °C 1014.8 hPa SW 9.5 km/h 16.1 km/h 89% 0 mm 0 W/m2
01:44 16.4 °C 15.1 °C 1014.4 hPa SW 7.2 km/h 17.7 km/h 89% 0 mm 0 W/m2
01:49 16.4 °C 15.2 °C 1014.4 hPa SW 11.9 km/h 29 km/h 90% 0 mm 0 W/m2
01:54 16.4 °C 15.2 °C 1014.4 hPa SW 8.9 km/h 16.1 km/h 90% 0 mm 0 W/m2
01:59 16.4 °C 15.2 °C 1014.4 hPa SW 6.8 km/h 14.5 km/h 90% 0 mm 0 W/m2
02:04 16.4 °C 15.2 °C 1014.4 hPa SSW 7.9 km/h 19.3 km/h 90% 0 mm 0 W/m2
02:09 16.4 °C 15.2 °C 1014.4 hPa SW 7.7 km/h 14.5 km/h 90% 0 mm 0 W/m2
02:14 16.5 °C 15.3 °C 1014.4 hPa SW 6.6 km/h 11.3 km/h 90% 0 mm 0 W/m2
02:19 16.5 °C 15.3 °C 1014.1 hPa SSW 7.1 km/h 17.7 km/h 90% 0 mm 0 W/m2
02:24 16.5 °C 15.3 °C 1014.1 hPa WSW 4.8 km/h 17.7 km/h 90% 0 mm 0 W/m2
02:29 16.5 °C 15.3 °C 1014.1 hPa SW 5.1 km/h 12.9 km/h 90% 0 mm 0 W/m2
02:34 16.6 °C 15.4 °C 1014.1 hPa SSW 6.9 km/h 16.1 km/h 90% 0 mm 0 W/m2
02:39 16.6 °C 15.4 °C 1014.1 hPa SSW 6.6 km/h 14.5 km/h 90% 0 mm 0 W/m2
02:44 16.6 °C 15.4 °C 1014.1 hPa WSW 5.6 km/h 16.1 km/h 90% 0 mm 0 W/m2
02:49 16.6 °C 15.4 °C 1014.1 hPa SW 4.5 km/h 11.3 km/h 90% 0 mm 0 W/m2
02:54 16.6 °C 15.4 °C 1014.1 hPa SW 7.9 km/h 16.1 km/h 90% 0 mm 0 W/m2
02:59 16.6 °C 15.4 °C 1014.1 hPa WSW 2.7 km/h 12.9 km/h 90% 0 mm 0 W/m2
03:04 16.7 °C 15.5 °C 1014.1 hPa WSW 5.6 km/h 11.3 km/h 90% 0 mm 0 W/m2
03:09 16.7 °C 15.6 °C 1014.1 hPa SW 3.7 km/h 11.3 km/h 90.4% 0 mm 0 W/m2
03:14 16.7 °C 15.7 °C 1014.1 hPa West 5.8 km/h 12.9 km/h 91% 0 mm 0 W/m2
03:19 16.7 °C 15.7 °C 1014.1 hPa West 6.1 km/h 12.9 km/h 91% 0 mm 0 W/m2
03:23 16.7 °C 15.7 °C 1013.8 hPa SW 6.1 km/h 12.9 km/h 91% 0 mm 0 W/m2
03:29 16.8 °C 15.8 °C 1013.8 hPa SW 8.7 km/h 16.1 km/h 91% 0 mm 0 W/m2
03:34 16.8 °C 15.8 °C 1013.8 hPa WSW 7.7 km/h 16.1 km/h 91% 0 mm 0 W/m2
03:39 16.8 °C 15.8 °C 1013.8 hPa WSW 9.3 km/h 16.1 km/h 91% 0 mm 0 W/m2
03:44 16.8 °C 15.9 °C 1013.8 hPa WSW 4.8 km/h 14.5 km/h 91% 0 mm 0 W/m2
03:49 16.9 °C 15.9 °C 1013.8 hPa SW 11.1 km/h 20.9 km/h 91% 0 mm 0 W/m2
03:54 17 °C 16 °C 1013.8 hPa SW 9.2 km/h 20.9 km/h 91% 0 mm 0 W/m2
03:59 17 °C 16 °C 1013.4 hPa WSW 10 km/h 19.3 km/h 91% 0 mm 0 W/m2
04:03 17 °C 16 °C 1013.8 hPa SW 6.4 km/h 24.1 km/h 91% 0 mm 0 W/m2
04:09 17 °C 16 °C 1013.4 hPa SW 7.9 km/h 24.1 km/h 91% 0 mm 0 W/m2
04:14 17 °C 16 °C 1013.4 hPa WSW 5.6 km/h 19.3 km/h 91% 0 mm 0 W/m2
04:19 17 °C 16 °C 1013.4 hPa SW 7.2 km/h 14.5 km/h 91% 0 mm 0 W/m2
04:24 16.9 °C 15.9 °C 1013.4 hPa SW 4 km/h 14.5 km/h 91% 0 mm 0 W/m2
04:29 17 °C 16 °C 1013.4 hPa SSW 5.6 km/h 16.1 km/h 91% 0 mm 0 W/m2
04:34 17 °C 16 °C 1013.4 hPa SW 5.5 km/h 11.3 km/h 91% 0 mm 0 W/m2
04:38 17.1 °C 16.1 °C 1013.4 hPa WSW 4.8 km/h 14.5 km/h 91% 0 mm 0 W/m2
04:44 17.1 °C 16.1 °C 1013.4 hPa WSW 6.8 km/h 16.1 km/h 91% 0 mm 0 W/m2
04:49 17.2 °C 16.2 °C 1013.4 hPa WSW 5.1 km/h 16.1 km/h 91% 0 mm 0 W/m2
04:54 17.2 °C 16.2 °C 1013.4 hPa WSW 10.3 km/h 17.7 km/h 91% 0 mm 0 W/m2
04:59 17.3 °C 16.3 °C 1013.4 hPa WSW 5.3 km/h 17.7 km/h 91% 0 mm 0 W/m2
05:04 17.3 °C 16.3 °C 1013.4 hPa SW 6.8 km/h 14.5 km/h 91% 0 mm 0 W/m2
05:09 17.3 °C 16.3 °C 1013.4 hPa WSW 7.1 km/h 12.9 km/h 91% 0 mm 0 W/m2
05:14 17.3 °C 16.3 °C 1013.1 hPa WSW 8 km/h 14.5 km/h 91% 0 mm 0 W/m2
05:19 17.4 °C 16.4 °C 1013.1 hPa WSW 8.7 km/h 16.1 km/h 91% 0 mm 0 W/m2
05:24 17.4 °C 16.4 °C 1013.1 hPa SW 10 km/h 16.1 km/h 91% 0 mm 0 W/m2
05:29 17.4 °C 16.3 °C 1013.1 hPa SW 7.1 km/h 16.1 km/h 90.2% 0 mm 0 W/m2
05:34 17.4 °C 16.2 °C 1013.1 hPa WSW 9.3 km/h 16.1 km/h 90% 0 mm 0 W/m2
05:39 17.4 °C 16.3 °C 1013.4 hPa WSW 7.7 km/h 17.7 km/h 90.2% 0 mm 0 W/m2
05:44 17.4 °C 16.2 °C 1013.1 hPa SW 9.2 km/h 17.7 km/h 90% 0 mm 0 W/m2
05:49 17.4 °C 16.2 °C 1013.1 hPa SW 11.6 km/h 20.9 km/h 90% 0 mm 0 W/m2
05:54 17.4 °C 16.2 °C 1013.1 hPa SW 9.2 km/h 16.1 km/h 90% 0 mm 0 W/m2
05:59 17.4 °C 16.2 °C 1013.1 hPa SW 10 km/h 20.9 km/h 90% 0 mm 0 W/m2
06:04 17.4 °C 16.2 °C 1013.1 hPa SW 10 km/h 17.7 km/h 90% 0 mm 0 W/m2
06:09 17.4 °C 16.2 °C 1013.4 hPa SW 7.9 km/h 16.1 km/h 90% 0 mm 0 W/m2
06:14 17.4 °C 16.4 °C 1013.1 hPa SW 6.4 km/h 14.5 km/h 91% 0 mm 0 W/m2
06:19 17.3 °C 16.3 °C 1013.4 hPa SSW 5.1 km/h 14.5 km/h 91% 0 mm 0 W/m2
06:24 17.3 °C 16.3 °C 1013.4 hPa SW 6 km/h 12.9 km/h 91% 0 mm 0 W/m2
06:29 17.3 °C 16.3 °C 1013.4 hPa SW 5.8 km/h 12.9 km/h 91% 0 mm 0 W/m2
06:34 17.3 °C 16.3 °C 1013.4 hPa SW 6 km/h 11.3 km/h 91% 0 mm 0 W/m2
06:39 17.3 °C 16.3 °C 1013.4 hPa SSW 4 km/h 12.9 km/h 91% 0 mm 0 W/m2
06:44 17.3 °C 16.3 °C 1013.4 hPa WSW 6.6 km/h 12.9 km/h 91% 0 mm 0 W/m2
06:49 17.3 °C 16.3 °C 1013.4 hPa WSW 5.1 km/h 12.9 km/h 91% 0 mm 0 W/m2
06:54 17.3 °C 16.3 °C 1013.4 hPa SSW 3.7 km/h 12.9 km/h 91% 0 mm 0 W/m2
06:59 17.4 °C 16.4 °C 1013.4 hPa SW 6.4 km/h 12.9 km/h 91% 0 mm 5 W/m2
07:04 17.4 °C 16.4 °C 1013.4 hPa WSW 5.1 km/h 12.9 km/h 91% 0 mm 9 W/m2
07:09 17.5 °C 16.5 °C 1013.4 hPa SW 4 km/h 8 km/h 91% 0 mm 11 W/m2
07:14 17.6 °C 16.6 °C 1013.4 hPa SW 5.3 km/h 12.9 km/h 91% 0 mm 18 W/m2
07:19 17.6 °C 16.6 °C 1013.4 hPa SSW 6.6 km/h 12.9 km/h 91% 0 mm 18 W/m2
07:24 17.7 °C 16.7 °C 1013.4 hPa SW 7.4 km/h 16.1 km/h 91% 0 mm 16 W/m2
07:29 17.7 °C 16.7 °C 1013.4 hPa WSW 7.4 km/h 14.5 km/h 91% 0 mm 14 W/m2
07:34 17.8 °C 16.8 °C 1013.4 hPa SW 7.4 km/h 12.9 km/h 91% 0 mm 12 W/m2
07:39 17.8 °C 16.8 °C 1013.4 hPa SW 8.5 km/h 14.5 km/h 91% 0 mm 11 W/m2
07:44 17.8 °C 16.8 °C 1013.4 hPa SW 8.4 km/h 17.7 km/h 91% 0 mm 11 W/m2
07:49 17.8 °C 16.8 °C 1013.4 hPa SW 6.4 km/h 14.5 km/h 91% 0 mm 32 W/m2
07:54 17.8 °C 16.8 °C 1013.4 hPa SW 8 km/h 17.7 km/h 91% 0 mm 47 W/m2
07:59 17.9 °C 16.9 °C 1013.4 hPa SSW 8.5 km/h 17.7 km/h 91% 0 mm 44 W/m2
08:04 17.9 °C 16.9 °C 1013.4 hPa WSW 7.7 km/h 14.5 km/h 91% 0 mm 39 W/m2
08:09 18 °C 17 °C 1013.4 hPa SW 7.7 km/h 17.7 km/h 91% 0 mm 21 W/m2
08:14 18.1 °C 17.1 °C 1013.4 hPa SW 8.5 km/h 14.5 km/h 91% 0 mm 19 W/m2
08:19 18.1 °C 17.1 °C 1013.4 hPa SW 7.2 km/h 12.9 km/h 91% 0 mm 16 W/m2
08:24 18.2 °C 17.1 °C 1013.8 hPa WSW 10 km/h 20.9 km/h 90.8% 0 mm 19 W/m2
08:29 18.2 °C 17.1 °C 1013.8 hPa SW 13.5 km/h 29 km/h 90.2% 0 mm 33 W/m2
08:34 18.2 °C 17.1 °C 1013.8 hPa SW 9.3 km/h 20.9 km/h 90.6% 0 mm 46 W/m2
08:39 18.2 °C 17.2 °C 1013.8 hPa WSW 9.5 km/h 24.1 km/h 91% 0 mm 63 W/m2
08:44 18.1 °C 17.1 °C 1013.8 hPa WSW 9.7 km/h 24.1 km/h 91% 0 mm 53 W/m2
08:49 18.1 °C 17.1 °C 1013.8 hPa WSW 9.2 km/h 17.7 km/h 91% 0 mm 65 W/m2
08:54 18.1 °C 17.2 °C 1013.8 hPa WSW 6.6 km/h 20.9 km/h 91.6% 0 mm 88 W/m2
08:59 18.1 °C 17.3 °C 1013.8 hPa WSW 8.4 km/h 20.9 km/h 92% 0 mm 86 W/m2
09:04 18.1 °C 17.3 °C 1014.1 hPa WSW 8.4 km/h 19.3 km/h 92% 0 mm 60 W/m2
09:09 18.1 °C 17.3 °C 1014.1 hPa WSW 8.7 km/h 16.1 km/h 92% 0 mm 42 W/m2
09:14 18.1 °C 17.3 °C 1014.1 hPa WSW 10.8 km/h 14.5 km/h 92% 0 mm 58 W/m2
09:18 18.1 °C 17.3 °C 1014.1 hPa West 7.6 km/h 16.1 km/h 92% 0 mm 58 W/m2
09:24 18.1 °C 17.3 °C 1014.1 hPa West 6.9 km/h 11.3 km/h 92% 0 mm 67 W/m2
09:29 18.1 °C 17.3 °C 1014.1 hPa SW 6 km/h 12.9 km/h 92% 0 mm 70 W/m2
09:34 18.1 °C 17.3 °C 1014.1 hPa West 6 km/h 14.5 km/h 92.4% 0 mm 84 W/m2
09:39 18.1 °C 17.4 °C 1014.1 hPa WSW 6.6 km/h 12.9 km/h 92.6% 0 mm 83 W/m2
09:44 18.2 °C 17.4 °C 1014.1 hPa West 7.6 km/h 12.9 km/h 92.8% 0 mm 72 W/m2
09:49 18.2 °C 17.5 °C 1014.1 hPa WSW 6.8 km/h 12.9 km/h 93% 0 mm 91 W/m2
09:54 18.2 °C 17.5 °C 1014.1 hPa WSW 6 km/h 12.9 km/h 93% 0 mm 81 W/m2
09:59 18.2 °C 17.5 °C 1014.4 hPa West 9.5 km/h 14.5 km/h 93% 0 mm 91 W/m2
10:04 18.2 °C 17.5 °C 1014.4 hPa West 9 km/h 16.1 km/h 93% 0 mm 84 W/m2
10:09 18.3 °C 17.6 °C 1014.4 hPa West 7.1 km/h 14.5 km/h 93% 0 mm 53 W/m2
10:14 18.2 °C 17.5 °C 1014.4 hPa West 8 km/h 14.5 km/h 93% 0 mm 58 W/m2
10:19 18.2 °C 17.5 °C 1014.4 hPa West 5.6 km/h 14.5 km/h 93% 0 mm 65 W/m2
10:24 18.2 °C 17.5 °C 1014.4 hPa West 4.8 km/h 12.9 km/h 93% 0 mm 62 W/m2
10:29 18.2 °C 17.5 °C 1014.4 hPa WNW 3.7 km/h 8 km/h 93% 0.25 mm 70 W/m2
10:34 18.2 °C 17.6 °C 1014.4 hPa WNW 3.2 km/h 6.4 km/h 93% 0.25 mm 46 W/m2
10:39 18.2 °C 17.5 °C 1014.4 hPa WNW 3.2 km/h 8 km/h 93% 0.25 mm 51 W/m2
10:44 18.2 °C 17.5 °C 1014.4 hPa NW 3.7 km/h 9.7 km/h 93% 0.25 mm 60 W/m2
10:49 18.1 °C 17.4 °C 1014.4 hPa NW 4.7 km/h 11.3 km/h 93% 0.25 mm 40 W/m2
10:54 18.1 °C 17.4 °C 1014.4 hPa NW 4 km/h 9.7 km/h 93% 0.51 mm 46 W/m2
10:59 17.9 °C 17.4 °C 1014.4 hPa NW 5.3 km/h 11.3 km/h 93.8% 0.51 mm 77 W/m2
11:04 17.9 °C 17.4 °C 1014.4 hPa WNW 7.1 km/h 11.3 km/h 94% 0.51 mm 93 W/m2
11:09 17.8 °C 17.3 °C 1014.4 hPa WNW 5.3 km/h 9.7 km/h 94% 0.51 mm 74 W/m2
11:14 17.7 °C 17.2 °C 1014.8 hPa West 8.2 km/h 19.3 km/h 94% 0.51 mm 63 W/m2
11:19 17.5 °C 17 °C 1014.8 hPa WNW 9.5 km/h 17.7 km/h 94% 0.51 mm 65 W/m2
11:24 17.4 °C 16.9 °C 1014.8 hPa WNW 10 km/h 16.1 km/h 94% 0.51 mm 67 W/m2
11:29 17.3 °C 16.8 °C 1014.8 hPa WNW 9 km/h 14.5 km/h 94% 0.51 mm 91 W/m2
11:34 17.3 °C 16.8 °C 1014.8 hPa WNW 12.2 km/h 17.7 km/h 94% 0.25 mm 102 W/m2
11:39 17.3 °C 16.8 °C 1014.8 hPa WNW 7.7 km/h 16.1 km/h 94% 0.25 mm 93 W/m2
11:44 17.3 °C 16.8 °C 1014.8 hPa WNW 7.2 km/h 14.5 km/h 94% 0.25 mm 100 W/m2
11:49 17.2 °C 16.7 °C 1014.8 hPa WNW 11.6 km/h 14.5 km/h 94% 0.25 mm 107 W/m2
11:54 17.2 °C 16.7 °C 1014.8 hPa West 10.5 km/h 17.7 km/h 94% 0.25 mm 104 W/m2
11:59 17.2 °C 16.7 °C 1015.1 hPa NW 7.9 km/h 16.1 km/h 94% 0 mm 90 W/m2
12:04 17.1 °C 16.6 °C 1015.1 hPa WNW 7.7 km/h 17.7 km/h 94% 0 mm 72 W/m2
12:09 17.1 °C 16.6 °C 1015.1 hPa WNW 8.4 km/h 16.1 km/h 94% 0 mm 62 W/m2
12:14 17 °C 16.5 °C 1015.1 hPa NW 8.5 km/h 17.7 km/h 94% 0 mm 76 W/m2
12:19 16.9 °C 16.4 °C 1015.1 hPa West 6.4 km/h 14.5 km/h 94% 0 mm 83 W/m2
12:24 16.9 °C 16.4 °C 1015.1 hPa West 6.6 km/h 11.3 km/h 94% 0 mm 86 W/m2
12:29 16.9 °C 16.4 °C 1015.1 hPa West 3.2 km/h 12.9 km/h 94% 0 mm 95 W/m2
12:34 16.9 °C 16.4 °C 1015.1 hPa West 6.6 km/h 12.9 km/h 94% 0 mm 86 W/m2
12:39 16.9 °C 16.4 °C 1015.1 hPa West 4.7 km/h 9.7 km/h 94% 0 mm 98 W/m2
12:44 16.9 °C 16.4 °C 1015.1 hPa West 5.8 km/h 11.3 km/h 94% 0 mm 118 W/m2
12:49 16.9 °C 16.4 °C 1015.1 hPa West 7.1 km/h 11.3 km/h 94% 0 mm 118 W/m2
12:54 16.8 °C 16.3 °C 1015.1 hPa WNW 6.6 km/h 14.5 km/h 94% 0 mm 114 W/m2
12:59 16.8 °C 16.3 °C 1015.1 hPa West 5.5 km/h 11.3 km/h 94% 0 mm 139 W/m2
13:04 16.8 °C 16.3 °C 1015.1 hPa West 6 km/h 8 km/h 94% 0 mm 116 W/m2
13:09 16.9 °C 16.4 °C 1015.1 hPa West 3.4 km/h 12.9 km/h 94% 0 mm 171 W/m2
13:14 16.8 °C 16.3 °C 1015.1 hPa West 10.5 km/h 16.1 km/h 94% 0 mm 243 W/m2
13:19 16.8 °C 16.3 °C 1015.1 hPa West 4.7 km/h 12.9 km/h 94% 0 mm 176 W/m2
13:23 16.9 °C 16.4 °C 1015.1 hPa West 6.8 km/h 14.5 km/h 94% 0 mm 141 W/m2
13:29 16.9 °C 16.4 °C 1015.5 hPa West 10.3 km/h 16.1 km/h 94% 0 mm 127 W/m2
13:34 16.9 °C 16.4 °C 1015.5 hPa West 7.1 km/h 19.3 km/h 94% 0 mm 188 W/m2
13:39 16.9 °C 16.4 °C 1015.5 hPa WNW 7.9 km/h 24.1 km/h 94% 0 mm 176 W/m2
13:44 16.9 °C 16.4 °C 1015.5 hPa West 9.5 km/h 24.1 km/h 94% 0 mm 236 W/m2
13:49 16.9 °C 16.4 °C 1015.5 hPa WNW 8.7 km/h 14.5 km/h 94% 0 mm 153 W/m2
13:54 16.8 °C 16.3 °C 1015.5 hPa WNW 9.3 km/h 19.3 km/h 94% 0 mm 134 W/m2
13:59 16.7 °C 16.2 °C 1015.8 hPa WNW 12.2 km/h 27.4 km/h 94% 0 mm 200 W/m2
14:04 16.6 °C 16.1 °C 1015.8 hPa WNW 12.2 km/h 22.5 km/h 94% 0 mm 200 W/m2
14:09 16.6 °C 16 °C 1015.8 hPa WNW 11.3 km/h 17.7 km/h 94% 0 mm 188 W/m2
14:14 16.5 °C 15.9 °C 1015.8 hPa WNW 12.2 km/h 22.5 km/h 93.6% 0 mm 239 W/m2
14:19 16.5 °C 15.9 °C 1015.8 hPa West 11.3 km/h 20.9 km/h 93% 0 mm 218 W/m2
14:24 16.6 °C 16 °C 1015.8 hPa West 8.4 km/h 17.7 km/h 93.2% 0 mm 199 W/m2
14:29 16.5 °C 15.9 °C 1015.8 hPa WNW 10.6 km/h 20.9 km/h 93% 0 mm 232 W/m2
14:34 16.5 °C 15.9 °C 1015.8 hPa West 8 km/h 19.3 km/h 93.2% 0 mm 250 W/m2
14:39 16.6 °C 16.1 °C 1015.8 hPa West 9.3 km/h 19.3 km/h 94% 0 mm 258 W/m2
14:44 16.6 °C 16.1 °C 1015.8 hPa WNW 13.5 km/h 20.9 km/h 93.8% 0 mm 251 W/m2
14:49 16.6 °C 16.1 °C 1015.8 hPa WNW 15.3 km/h 22.5 km/h 93.8% 0 mm 220 W/m2
14:54 16.6 °C 16.1 °C 1015.8 hPa West 10.3 km/h 20.9 km/h 93.6% 0 mm 236 W/m2
14:59 16.7 °C 16.1 °C 1015.8 hPa WNW 10.6 km/h 20.9 km/h 93.2% 0 mm 200 W/m2
15:04 16.6 °C 16 °C 1015.8 hPa West 10.6 km/h 20.9 km/h 93% 0 mm 141 W/m2
15:09 16.6 °C 15.9 °C 1015.8 hPa West 9.3 km/h 17.7 km/h 93% 0 mm 155 W/m2
15:14 16.6 °C 15.9 °C 1015.8 hPa West 10.3 km/h 24.1 km/h 93% 0 mm 163 W/m2
15:19 16.3 °C 15.7 °C 1016.1 hPa WNW 11.6 km/h 24.1 km/h 93% 0 mm 134 W/m2
15:24 16.2 °C 15.6 °C 1016.1 hPa WNW 14.2 km/h 20.9 km/h 93% 0 mm 141 W/m2
15:29 16.2 °C 15.4 °C 1016.1 hPa WNW 8.4 km/h 19.3 km/h 92% 0 mm 151 W/m2
15:34 16.2 °C 15.3 °C 1016.1 hPa WNW 9.8 km/h 22.5 km/h 91.8% 0 mm 153 W/m2
15:39 16.2 °C 15.2 °C 1016.1 hPa WNW 11.3 km/h 22.5 km/h 91% 0 mm 135 W/m2
15:44 16.3 °C 15.2 °C 1016.1 hPa WNW 8 km/h 14.5 km/h 90.8% 0 mm 160 W/m2
15:49 16.3 °C 15.1 °C 1016.1 hPa WNW 10.1 km/h 17.7 km/h 90% 0 mm 202 W/m2
15:54 16.4 °C 15.2 °C 1016.1 hPa West 5.5 km/h 14.5 km/h 90% 0 mm 171 W/m2
15:59 16.4 °C 15.1 °C 1016.1 hPa WNW 5 km/h 14.5 km/h 89% 0 mm 176 W/m2
16:04 16.4 °C 15.2 °C 1016.1 hPa WNW 7.6 km/h 12.9 km/h 89% 0 mm 149 W/m2
16:09 16.4 °C 14.9 °C 1016.1 hPa WNW 7.7 km/h 16.1 km/h 88.2% 0 mm 155 W/m2
16:14 16.4 °C 14.8 °C 1016.1 hPa West 9.3 km/h 16.1 km/h 87.6% 0 mm 149 W/m2
16:19 16.4 °C 14.7 °C 1016.1 hPa WNW 8.5 km/h 14.5 km/h 87% 0 mm 178 W/m2
16:24 16.6 °C 14.6 °C 1016.1 hPa West 7.2 km/h 14.5 km/h 86% 0 mm 137 W/m2
16:29 16.6 °C 14.7 °C 1016.1 hPa WNW 6.4 km/h 17.7 km/h 86% 0 mm 165 W/m2
16:34 16.7 °C 14.8 °C 1016.1 hPa West 10.5 km/h 17.7 km/h 86% 0 mm 160 W/m2
16:39 16.7 °C 14.8 °C 1016.1 hPa WNW 11.3 km/h 17.7 km/h 86% 0 mm 260 W/m2
16:44 16.8 °C 14.8 °C 1016.1 hPa West 11.6 km/h 16.1 km/h 85% 0 mm 267 W/m2
16:49 17 °C 14.9 °C 1016.1 hPa West 9.3 km/h 16.1 km/h 85% 0 mm 269 W/m2
16:54 17.1 °C 14.9 °C 1016.5 hPa West 13.4 km/h 27.4 km/h 84.3% 0 mm 204 W/m2
16:59 17.2 °C 14.8 °C 1016.1 hPa WNW 12.6 km/h 27.4 km/h 83.4% 0 mm 316 W/m2
17:04 17.3 °C 14.9 °C 1016.1 hPa WNW 12.1 km/h 20.9 km/h 83% 0 mm 313 W/m2
17:09 17.6 °C 15.2 °C 1016.5 hPa WNW 9.3 km/h 16.1 km/h 82.8% 0 mm 292 W/m2
17:14 17.8 °C 15.2 °C 1016.5 hPa WNW 13.2 km/h 19.3 km/h 82% 0 mm 455 W/m2
17:19 17.8 °C 14.9 °C 1016.5 hPa West 13.2 km/h 24.1 km/h 80.6% 0 mm 545 W/m2
17:24 17.8 °C 14.7 °C 1016.5 hPa West 11.9 km/h 20.9 km/h 79.4% 0 mm 220 W/m2
17:29 17.7 °C 14.7 °C 1016.5 hPa WNW 7.6 km/h 20.9 km/h 80% 0 mm 202 W/m2
17:34 17.6 °C 14.6 °C 1016.5 hPa WNW 12.7 km/h 22.5 km/h 80% 0 mm 153 W/m2
17:39 17.4 °C 14.4 °C 1016.5 hPa West 10.6 km/h 20.9 km/h 80% 0 mm 116 W/m2
17:44 17.3 °C 14.3 °C 1016.5 hPa West 11.3 km/h 19.3 km/h 80% 0 mm 132 W/m2
17:49 17.2 °C 14.3 °C 1016.5 hPa West 10.6 km/h 19.3 km/h 80.4% 0 mm 146 W/m2
17:54 17.2 °C 14.4 °C 1016.5 hPa West 10 km/h 20.9 km/h 81% 0 mm 100 W/m2
17:59 17.2 °C 14.4 °C 1016.5 hPa WNW 8 km/h 17.7 km/h 81% 0 mm 49 W/m2
18:04 17.1 °C 14.3 °C 1016.5 hPa WNW 7.2 km/h 17.7 km/h 81.2% 0 mm 21 W/m2
18:09 16.9 °C 14.4 °C 1016.5 hPa NW 9.5 km/h 20.9 km/h 82.5% 0 mm 30 W/m2
18:14 16.6 °C 14.3 °C 1016.5 hPa WNW 11.3 km/h 20.9 km/h 83.6% 0 mm 69 W/m2
18:19 16.3 °C 14.3 °C 1016.8 hPa WNW 9.2 km/h 17.7 km/h 84.8% 0 mm 81 W/m2
18:24 16.3 °C 14.3 °C 1016.8 hPa West 10 km/h 19.3 km/h 85% 0 mm 60 W/m2
18:29 16.3 °C 14.3 °C 1016.8 hPa WNW 12.1 km/h 17.7 km/h 85% 0 mm 39 W/m2
18:34 16.2 °C 14.2 °C 1016.8 hPa West 12.1 km/h 20.9 km/h 85% 0 mm 192 W/m2
18:39 16.3 °C 14.3 °C 1016.8 hPa West 7.9 km/h 14.5 km/h 84.8% 0 mm 98 W/m2
18:44 16.3 °C 14.2 °C 1016.8 hPa WNW 10.3 km/h 22.5 km/h 84% 0 mm 46 W/m2
18:49 16.3 °C 14.1 °C 1016.8 hPa WNW 10.8 km/h 22.5 km/h 84% 0 mm 100 W/m2
18:54 16.3 °C 14.2 °C 1017.2 hPa WNW 6.8 km/h 16.1 km/h 84% 0 mm 102 W/m2
18:59 16.3 °C 14 °C 1017.2 hPa West 10 km/h 19.3 km/h 83.4% 0 mm 51 W/m2
19:04 16.3 °C 13.8 °C 1017.2 hPa WNW 10 km/h 19.3 km/h 83% 0 mm 42 W/m2
19:09 16.2 °C 13.8 °C 1017.2 hPa WNW 10.8 km/h 17.7 km/h 83.4% 0 mm 35 W/m2
19:14 16 °C 13.8 °C 1017.2 hPa West 10.9 km/h 25.7 km/h 84% 0 mm 21 W/m2
19:19 15.9 °C 13.6 °C 1017.2 hPa WNW 10.9 km/h 25.7 km/h 83.6% 0 mm 18 W/m2
19:24 15.8 °C 13.4 °C 1017.2 hPa West 12.2 km/h 29 km/h 83% 0 mm 16 W/m2
19:29 15.8 °C 13.3 °C 1017.2 hPa WNW 10.1 km/h 20.9 km/h 83% 0 mm 12 W/m2
19:34 15.7 °C 13.3 °C 1017.5 hPa West 11.4 km/h 20.9 km/h 83% 0 mm 11 W/m2
19:39 15.7 °C 13.2 °C 1017.5 hPa WNW 9.5 km/h 20.9 km/h 83% 0 mm 7 W/m2
19:44 15.6 °C 13.2 °C 1017.8 hPa WNW 8 km/h 12.9 km/h 83% 0 mm 5 W/m2
19:49 15.4 °C 13 °C 1017.8 hPa WNW 9.7 km/h 19.3 km/h 83% 0 mm 0 W/m2
19:54 15.3 °C 12.9 °C 1017.8 hPa West 10.3 km/h 17.7 km/h 83% 0 mm 0 W/m2
19:59 15.3 °C 12.9 °C 1017.8 hPa WNW 11.9 km/h 19.3 km/h 83% 0 mm 0 W/m2
20:04 15.3 °C 12.9 °C 1017.8 hPa WNW 7.2 km/h 12.9 km/h 83.4% 0 mm 0 W/m2
20:09 15.2 °C 12.9 °C 1017.8 hPa WNW 8.7 km/h 17.7 km/h 84% 0 mm 0 W/m2
20:14 15.1 °C 12.9 °C 1017.8 hPa WNW 6.4 km/h 14.5 km/h 84% 0 mm 0 W/m2
20:19 15 °C 12.8 °C 1017.8 hPa WNW 6 km/h 11.3 km/h 84% 0 mm 0 W/m2
20:24 14.9 °C 12.8 °C 1017.8 hPa West 6 km/h 11.3 km/h 84.4% 0 mm 0 W/m2
20:29 14.8 °C 12.8 °C 1017.8 hPa West 5.5 km/h 12.9 km/h 85% 0 mm 0 W/m2
20:34 14.8 °C 12.8 °C 1018.2 hPa West 4 km/h 8 km/h 85% 0 mm 0 W/m2
20:39 14.8 °C 12.8 °C 1018.2 hPa WSW 4.8 km/h 6.4 km/h 85% 0 mm 0 W/m2
20:44 14.7 °C 12.7 °C 1018.2 hPa WSW 4.7 km/h 9.7 km/h 85% 0 mm 0 W/m2
20:49 14.6 °C 12.8 °C 1018.2 hPa West 4.5 km/h 9.7 km/h 85.8% 0 mm 0 W/m2
20:54 14.6 °C 12.8 °C 1018.5 hPa WSW 2.6 km/h 8 km/h 86% 0 mm 0 W/m2
20:59 14.6 °C 12.7 °C 1018.5 hPa West 3.2 km/h 6.4 km/h 86% 0 mm 0 W/m2
21:04 14.5 °C 12.7 °C 1018.5 hPa West 2.7 km/h 6.4 km/h 86% 0 mm 0 W/m2
21:09 14.4 °C 12.6 °C 1018.8 hPa Calm   4.8 km/h 86% 0 mm 0 W/m2
21:14 14.4 °C 12.6 °C 1018.8 hPa West 0.3 km/h 4.8 km/h 86% 0 mm 0 W/m2
21:19 14.4 °C 12.6 °C 1018.8 hPa Calm   1.6 km/h 86% 0 mm 0 W/m2
21:24 14.3 °C 12.7 °C 1018.8 hPa West 0.3 km/h 1.6 km/h 86.8% 0 mm 0 W/m2
21:29 14.3 °C 12.7 °C 1018.8 hPa West 1.3 km/h 6.4 km/h 87% 0 mm 0 W/m2
21:34 14.3 °C 12.7 °C 1018.8 hPa West 1.3 km/h 6.4 km/h 87% 0 mm 0 W/m2
21:39 14.3 °C 12.7 °C 1018.8 hPa West 0.6 km/h 4.8 km/h 87% 0 mm 0 W/m2
21:44 14.3 °C 12.7 °C 1018.8 hPa West 1.9 km/h 6.4 km/h 87% 0 mm 0 W/m2
21:48 14.3 °C 12.8 °C 1018.8 hPa West 1.1 km/h 4.8 km/h 87.5% 0 mm 0 W/m2
21:54 14.3 °C 12.8 °C 1018.8 hPa West 1.3 km/h 3.2 km/h 88% 0 mm 0 W/m2
21:59 14.3 °C 12.8 °C 1018.8 hPa Calm   3.2 km/h 88% 0 mm 0 W/m2
22:04 14.3 °C 12.8 °C 1018.8 hPa West 2.3 km/h 4.8 km/h 88% 0 mm 0 W/m2
22:09 14.3 °C 12.8 °C 1018.8 hPa West 2.3 km/h 6.4 km/h 88% 0 mm 0 W/m2
22:14 14.3 °C 12.8 °C 1018.8 hPa West 1.4 km/h 6.4 km/h 88% 0 mm 0 W/m2
22:19 14.3 °C 12.8 °C 1018.8 hPa West 1.9 km/h 6.4 km/h 88% 0 mm 0 W/m2
22:24 14.4 °C 12.9 °C 1018.8 hPa West 1 km/h 4.8 km/h 88% 0 mm 0 W/m2
22:29 14.4 °C 12.9 °C 1018.8 hPa West 2.7 km/h 6.4 km/h 88% 0 mm 0 W/m2
22:34 14.4 °C 12.9 °C 1019.2 hPa West 1 km/h 8 km/h 88% 0 mm 0 W/m2
22:39 14.4 °C 12.9 °C 1019.2 hPa West 0.8 km/h 3.2 km/h 88% 0 mm 0 W/m2
22:44 14.4 °C 12.9 °C 1019.2 hPa Calm   1.6 km/h 88% 0 mm 0 W/m2
22:49 14.4 °C 12.9 °C 1019.2 hPa West 3.5 km/h 6.4 km/h 88% 0 mm 0 W/m2
22:54 14.4 °C 12.9 °C 1019.2 hPa West 1 km/h 6.4 km/h 88% 0 mm 0 W/m2
22:59 14.4 °C 12.9 °C 1019.2 hPa West 2.4 km/h 6.4 km/h 88% 0 mm 0 W/m2
23:04 14.4 °C 12.9 °C 1019.2 hPa Calm   6.4 km/h 88% 0 mm 0 W/m2
23:09 14.3 °C 12.8 °C 1019.2 hPa Calm     88% 0 mm 0 W/m2
23:14 14.3 °C 12.8 °C 1019.2 hPa West 2.1 km/h 4.8 km/h 88% 0 mm 0 W/m2
23:19 14.3 °C 12.8 °C 1019.2 hPa West 0.6 km/h 4.8 km/h 88% 0 mm 0 W/m2
23:24 14.3 °C 12.8 °C 1019.2 hPa West 0.6 km/h 3.2 km/h 88% 0 mm 0 W/m2
23:29 14.3 °C 12.8 °C 1019.2 hPa West 1.9 km/h 4.8 km/h 88% 0 mm 0 W/m2
23:34 14.3 °C 12.8 °C 1019.2 hPa WSW 1.9 km/h 8 km/h 88% 0 mm 0 W/m2
23:39 14.3 °C 12.8 °C 1019.2 hPa WSW 3.4 km/h 6.4 km/h 88% 0 mm 0 W/m2
23:44 14.3 °C 12.8 °C 1019.2 hPa WSW 3.1 km/h 8 km/h 88% 0 mm 0 W/m2
23:49 14.3 °C 12.8 °C 1019.5 hPa WSW 1.8 km/h 6.4 km/h 87.8% 0 mm 0 W/m2
23:54 14.2 °C 12.6 °C 1019.5 hPa West 1.4 km/h 4.8 km/h 87% 0 mm 0 W/m2
23:59 14.2 °C 12.6 °C 1019.5 hPa West 2.7 km/h 6.4 km/h 87% 0 mm 0 W/m2
Bath Spa Weather
Compliments of Weather Underground - 2 mb